createdAt,value
2018-01-05T00:00:47.671Z,62.12
2018-01-05T00:01:47.637Z,61.83
2018-01-05T00:02:47.628Z,63.26
2018-01-05T00:03:47.596Z,72.56
2018-01-05T00:04:47.586Z,68.01
2018-01-05T00:05:47.574Z,71.43
2018-01-05T00:06:47.579Z,70.67
2018-01-05T00:07:47.553Z,63.17
2018-01-05T00:08:47.542Z,73.90
2018-01-05T00:09:47.531Z,65.44
2018-01-05T00:10:47.525Z,67.91
2018-01-05T00:11:47.514Z,70.76
2018-01-05T00:12:47.501Z,74.75
2018-01-05T00:13:47.495Z,71.43
2018-01-05T00:14:47.483Z,68.96
2018-01-05T00:15:47.472Z,72.85
2018-01-05T00:16:47.456Z,61.93
2018-01-05T00:17:47.453Z,66.49
2018-01-05T00:18:47.443Z,66.96
2018-01-05T00:19:47.427Z,79.41
2018-01-05T00:20:47.416Z,61.36
2018-01-05T00:21:47.408Z,71.48
2018-01-05T00:22:47.396Z,72.38
2018-01-05T00:23:47.387Z,75.32
2018-01-05T00:24:47.380Z,78.55
2018-01-05T00:25:47.370Z,73.14
2018-01-05T00:26:47.357Z,71.71
2018-01-05T00:27:47.351Z,71.04
2018-01-05T00:28:47.335Z,74.27
2018-01-05T00:29:47.340Z,70.76
2018-01-05T00:30:47.316Z,69.62
2018-01-05T00:31:47.306Z,71.43
2018-01-05T00:32:47.298Z,75.42
2018-01-05T00:33:47.300Z,72.09
2018-01-05T00:34:47.294Z,82.26
2018-01-05T00:35:47.283Z,68.29
2018-01-05T00:36:47.252Z,82.54
2018-01-05T00:37:47.248Z,76.75
2018-01-05T00:38:47.261Z,69.15
2018-01-05T00:39:47.224Z,80.55
2018-01-05T00:40:47.214Z,79.12
2018-01-05T00:41:47.212Z,80.74
2018-01-05T00:42:47.197Z,75.89
2018-01-05T00:43:47.181Z,68.29
2018-01-05T00:44:47.173Z,73.71
2018-01-05T00:45:47.160Z,72.95
2018-01-05T00:46:47.151Z,69.43
2018-01-05T00:47:47.148Z,79.88
2018-01-05T00:48:47.130Z,84.34
2018-01-05T00:49:47.121Z,72.66
2018-01-05T00:50:47.112Z,81.97
2018-01-05T00:51:47.114Z,65.63
2018-01-05T00:52:47.089Z,71.33
2018-01-05T00:53:47.099Z,68.19
2018-01-05T00:54:47.088Z,80.83
2018-01-05T00:55:47.061Z,73.90
2018-01-05T00:56:47.051Z,73.61
2018-01-05T00:57:47.051Z,77.41
2018-01-05T00:58:47.062Z,73.04
2018-01-05T00:59:47.021Z,76.56
2018-01-05T01:00:47.040Z,67.25
2018-01-05T01:01:47.007Z,69.34
2018-01-05T01:02:47.013Z,70.19
2018-01-05T01:03:46.997Z,67.06
2018-01-05T01:04:46.990Z,80.26
2018-01-05T01:05:46.977Z,69.91
2018-01-05T01:06:46.948Z,66.08
2018-01-05T01:07:46.935Z,72.75
2018-01-05T01:08:46.923Z,70.57
2018-01-05T01:09:46.910Z,74.66
2018-01-05T01:10:46.905Z,75.89
2018-01-05T01:11:46.900Z,73.04
2018-01-05T01:12:46.884Z,70.38
2018-01-05T01:13:46.876Z,67.44
2018-01-05T01:14:46.861Z,73.80
2018-01-05T01:15:46.853Z,72.56
2018-01-05T01:16:46.845Z,77.31
2018-01-05T01:17:46.833Z,65.54
2018-01-05T01:18:46.835Z,70.67
2018-01-05T01:19:46.811Z,77.79
2018-01-05T01:20:46.801Z,66.87
2018-01-05T01:21:46.791Z,70.00
2018-01-05T01:23:07.786Z,77.70
2018-01-05T01:23:46.771Z,77.70
2018-01-05T01:24:46.760Z,66.01
2018-01-05T01:25:46.754Z,79.12
2018-01-05T01:26:46.740Z,71.71
2018-01-05T01:27:46.728Z,77.60
2018-01-05T01:28:46.722Z,82.26
2018-01-05T01:29:46.709Z,76.84
2018-01-05T01:30:46.697Z,73.61
2018-01-05T01:31:46.688Z,72.19
2018-01-05T01:32:46.680Z,66.39
2018-01-05T01:33:46.668Z,77.18
2018-01-05T01:34:46.663Z,80.51
2018-01-05T01:35:46.649Z,67.79
2018-01-05T01:36:46.637Z,65.79
2018-01-05T01:37:46.626Z,79.97
2018-01-05T01:38:46.628Z,79.84
2018-01-05T01:39:46.607Z,69.11
2018-01-05T01:40:46.596Z,79.84
2018-01-05T01:41:46.585Z,68.16
2018-01-05T01:42:46.575Z,81.84
2018-01-05T01:43:46.561Z,71.86
2018-01-05T01:44:46.551Z,67.50
2018-01-05T01:45:46.544Z,72.53
2018-01-05T01:46:46.536Z,81.17
2018-01-05T01:47:46.521Z,72.81
2018-01-05T01:48:46.511Z,72.25
2018-01-05T01:49:46.506Z,75.57
2018-01-05T01:50:46.491Z,71.86
2018-01-05T01:51:46.481Z,68.73
2018-01-05T01:52:46.475Z,72.81
2018-01-05T01:53:46.473Z,70.15
2018-01-05T01:54:46.472Z,67.02
2018-01-05T01:55:46.445Z,68.92
2018-01-05T01:56:46.431Z,65.69
2018-01-05T01:57:46.421Z,71.01
2018-01-05T01:58:46.412Z,78.03
2018-01-05T01:59:46.397Z,70.06
2018-01-05T02:00:46.395Z,69.11
2018-01-05T02:01:46.390Z,64.17
2018-01-05T02:02:46.371Z,72.06
2018-01-05T02:03:46.357Z,65.88
2018-01-05T02:04:46.343Z,72.34
2018-01-05T02:05:46.334Z,70.15
2018-01-05T02:06:46.336Z,67.97
2018-01-05T02:07:46.316Z,68.54
2018-01-05T02:08:46.321Z,78.89
2018-01-05T02:09:46.290Z,67.31
2018-01-05T02:10:46.283Z,71.30
2018-01-05T02:11:46.273Z,69.21
2018-01-05T02:12:46.260Z,78.03
2018-01-05T02:13:46.269Z,66.93
2018-01-05T02:14:46.242Z,74.24
2018-01-05T02:15:46.253Z,64.94
2018-01-05T02:16:46.224Z,69.40
2018-01-05T02:17:46.223Z,66.27
2018-01-05T02:18:46.199Z,66.17
2018-01-05T02:19:46.191Z,68.83
2018-01-05T02:20:46.178Z,65.60
2018-01-05T02:21:46.173Z,66.36
2018-01-05T02:22:46.157Z,61.90
2018-01-05T02:23:46.143Z,70.63
2018-01-05T02:24:46.138Z,67.02
2018-01-05T02:25:46.128Z,61.14
2018-01-05T02:26:46.116Z,67.12
2018-01-05T02:27:46.102Z,70.54
2018-01-05T02:28:46.125Z,73.10
2018-01-05T02:29:46.091Z,65.98
2018-01-05T02:30:46.073Z,66.17
2018-01-05T02:31:46.075Z,73.29
2018-01-05T02:32:46.048Z,65.50
2018-01-05T02:33:46.039Z,64.65
2018-01-05T02:34:46.036Z,74.62
2018-01-05T02:35:46.022Z,75.47
2018-01-05T02:36:46.012Z,70.63
2018-01-05T02:37:46.000Z,67.21
2018-01-05T02:38:45.989Z,66.27
2018-01-05T02:39:45.973Z,71.67
2018-01-05T02:40:45.972Z,73.19
2018-01-05T02:41:45.964Z,68.07
2018-01-05T02:42:45.951Z,75.28
2018-01-05T02:43:45.934Z,66.64
2018-01-05T02:44:45.925Z,67.88
2018-01-05T02:45:45.926Z,67.50
2018-01-05T02:46:45.916Z,66.93
2018-01-05T02:47:45.898Z,77.75
2018-01-05T02:48:45.888Z,70.63
2018-01-05T02:49:45.869Z,62.94
2018-01-05T02:50:45.861Z,65.60
2018-01-05T02:51:45.849Z,70.63
2018-01-05T02:52:45.848Z,75.19
2018-01-05T02:53:45.837Z,63.70
2018-01-05T02:54:45.822Z,63.98
2018-01-05T02:55:45.810Z,67.88
2018-01-05T02:56:45.792Z,68.73
2018-01-05T02:57:45.786Z,74.71
2018-01-05T02:58:45.780Z,66.83
2018-01-05T02:59:45.787Z,69.59
2018-01-05T03:00:45.757Z,67.88
2018-01-05T03:01:45.750Z,69.78
2018-01-05T03:02:45.740Z,73.10
2018-01-05T03:03:45.721Z,67.50
2018-01-05T03:04:45.729Z,64.56
2018-01-05T03:05:45.704Z,73.86
2018-01-05T03:06:45.689Z,73.38
2018-01-05T03:07:45.680Z,63.13
2018-01-05T03:08:45.672Z,72.72
2018-01-05T03:09:45.670Z,64.08
2018-01-05T03:10:45.647Z,76.32
2018-01-05T03:11:45.639Z,66.83
2018-01-05T03:12:45.624Z,67.97
2018-01-05T03:13:45.616Z,67.40
2018-01-05T03:14:45.601Z,66.83
2018-01-05T03:15:45.596Z,70.63
2018-01-05T03:16:45.588Z,67.79
2018-01-05T03:17:45.577Z,72.91
2018-01-05T03:18:45.566Z,67.97
2018-01-05T03:19:45.551Z,65.69
2018-01-05T03:20:45.546Z,70.73
2018-01-05T03:21:45.533Z,67.02
2018-01-05T03:22:45.525Z,69.87
2018-01-05T03:23:45.509Z,64.27
2018-01-05T03:24:45.506Z,63.13
2018-01-05T03:25:45.489Z,66.93
2018-01-05T03:26:45.485Z,65.69
2018-01-05T03:27:45.468Z,67.21
2018-01-05T03:28:45.462Z,66.74
2018-01-05T03:29:45.450Z,69.21
2018-01-05T03:30:45.436Z,66.93
2018-01-05T03:31:45.425Z,65.31
2018-01-05T03:32:45.416Z,71.96
2018-01-05T03:33:45.404Z,71.01
2018-01-05T03:34:45.397Z,70.44
2018-01-05T03:35:45.387Z,63.32
2018-01-05T03:36:45.380Z,66.96
2018-01-05T03:37:45.374Z,65.98
2018-01-05T03:38:45.360Z,61.80
2018-01-05T03:39:45.345Z,70.06
2018-01-05T03:40:45.336Z,69.02
2018-01-05T03:41:45.327Z,73.33
2018-01-05T03:42:45.319Z,63.07
2018-01-05T03:43:45.306Z,73.23
2018-01-05T03:44:45.300Z,68.77
2018-01-05T03:45:45.283Z,67.44
2018-01-05T03:46:45.312Z,70.10
2018-01-05T03:47:45.261Z,72.28
2018-01-05T03:48:45.256Z,67.06
2018-01-05T03:49:45.261Z,67.15
2018-01-05T03:50:45.232Z,69.62
2018-01-05T03:51:45.224Z,61.36
2018-01-05T03:52:45.212Z,71.14
2018-01-05T03:53:45.196Z,66.96
2018-01-05T03:54:45.190Z,65.25
2018-01-05T03:55:45.183Z,64.59
2018-01-05T03:56:45.173Z,74.66
2018-01-05T03:57:45.162Z,65.92
2018-01-05T03:58:45.149Z,70.00
2018-01-05T03:59:45.139Z,64.21
2018-01-05T04:00:45.130Z,65.73
2018-01-05T04:01:45.120Z,64.59
2018-01-05T04:02:45.115Z,65.06
2018-01-05T04:03:45.097Z,70.19
2018-01-05T04:04:45.082Z,71.04
2018-01-05T04:05:45.076Z,65.16
2018-01-05T04:06:45.068Z,65.06
2018-01-05T04:07:45.060Z,71.52
2018-01-05T04:08:45.044Z,70.67
2018-01-05T04:09:45.035Z,75.99
2018-01-05T04:10:45.028Z,69.24
2018-01-05T04:11:45.016Z,65.63
2018-01-05T04:12:45.008Z,74.18
2018-01-05T04:13:44.997Z,77.51
2018-01-05T04:14:44.986Z,75.23
2018-01-05T04:15:44.984Z,72.38
2018-01-05T04:16:44.965Z,75.51
2018-01-05T04:17:44.956Z,71.71
2018-01-05T04:18:44.945Z,72.38
2018-01-05T04:19:44.934Z,80.74
2018-01-05T04:20:44.927Z,73.33
2018-01-05T04:21:44.913Z,75.32
2018-01-05T04:22:44.900Z,75.42
2018-01-05T04:23:44.894Z,72.47
2018-01-05T04:24:44.883Z,81.12
2018-01-05T04:25:44.872Z,74.27
2018-01-05T04:26:44.871Z,70.10
2018-01-05T04:27:44.851Z,78.83
2018-01-05T04:28:44.843Z,74.85
2018-01-05T04:29:44.836Z,76.46
2018-01-05T04:30:44.822Z,74.37
2018-01-05T04:31:44.812Z,72.56
2018-01-05T04:32:44.807Z,65.44
2018-01-05T04:33:44.791Z,65.92
2018-01-05T04:34:44.778Z,64.30
2018-01-05T04:35:44.782Z,68.19
2018-01-05T04:36:44.761Z,65.25
2018-01-05T04:37:44.754Z,71.81
2018-01-05T04:38:44.742Z,67.63
2018-01-05T04:39:44.729Z,64.97
2018-01-05T04:40:44.720Z,72.47
2018-01-05T04:41:44.711Z,61.74
2018-01-05T04:42:44.703Z,64.78
2018-01-05T04:43:44.689Z,67.72
2018-01-05T04:44:44.680Z,61.36
2018-01-05T04:45:44.677Z,66.20
2018-01-05T04:46:44.661Z,73.33
2018-01-05T04:47:44.650Z,69.15
2018-01-05T04:48:44.639Z,70.10
2018-01-05T04:49:44.628Z,70.95
2018-01-05T04:50:44.625Z,65.25
2018-01-05T04:51:44.602Z,64.87
2018-01-05T04:52:44.606Z,75.13
2018-01-05T04:53:44.593Z,75.42
2018-01-05T04:54:44.579Z,69.53
2018-01-05T04:55:44.580Z,69.15
2018-01-05T04:56:44.564Z,66.96
2018-01-05T04:57:44.548Z,62.88
2018-01-05T04:58:44.534Z,65.82
2018-01-05T04:59:44.527Z,70.95
2018-01-05T05:00:44.516Z,66.77
2018-01-05T05:01:44.515Z,67.82
2018-01-05T05:02:44.498Z,76.56
2018-01-05T05:03:44.481Z,75.51
2018-01-05T05:04:44.475Z,72.28
2018-01-05T05:05:44.466Z,67.15
2018-01-05T05:06:44.456Z,66.87
2018-01-05T05:07:44.449Z,66.11
2018-01-05T05:08:44.438Z,61.93
2018-01-05T05:09:44.427Z,61.65
2018-01-05T05:10:44.415Z,62.59
2018-01-05T05:11:44.401Z,64.40
2018-01-05T05:12:44.393Z,58.61
2018-01-05T05:13:44.389Z,65.06
2018-01-05T05:14:44.376Z,61.07
2018-01-05T05:15:44.363Z,64.49
2018-01-05T05:16:44.354Z,62.97
2018-01-05T05:17:44.349Z,60.60
2018-01-05T05:18:44.334Z,64.02
2018-01-05T05:19:44.320Z,58.13
2018-01-05T05:20:44.314Z,61.74
2018-01-05T05:21:44.305Z,55.18
2018-01-05T05:22:44.296Z,56.51
2018-01-05T05:23:44.293Z,57.65
2018-01-05T05:24:44.303Z,60.98
2018-01-05T05:25:44.279Z,56.70
2018-01-05T05:26:44.278Z,58.13
2018-01-05T05:27:44.240Z,56.51
2018-01-05T05:28:44.229Z,54.80
2018-01-05T05:29:44.237Z,52.24
2018-01-05T05:30:44.233Z,53.57
2018-01-05T05:31:44.203Z,51.48
2018-01-05T05:32:44.190Z,51.86
2018-01-05T05:33:44.182Z,50.43
2018-01-05T05:34:44.174Z,49.87
2018-01-05T05:35:44.160Z,48.32
2018-01-05T05:36:44.160Z,47.47
2018-01-05T05:37:44.149Z,46.51
2018-01-05T05:38:44.132Z,46.61
2018-01-05T05:39:44.124Z,46.14
2018-01-05T05:40:44.110Z,45.38
2018-01-05T05:41:44.098Z,45.19
2018-01-05T05:42:44.097Z,45.09
2018-01-05T05:43:44.127Z,44.34
2018-01-05T05:44:44.082Z,43.95
2018-01-05T05:45:44.063Z,43.67
2018-01-05T05:46:44.052Z,43.19
2018-01-05T05:47:44.041Z,42.91
2018-01-05T05:48:44.033Z,42.91
2018-01-05T05:49:44.018Z,42.43
2018-01-05T05:50:44.008Z,42.91
2018-01-05T05:51:43.995Z,42.91
2018-01-05T05:52:43.982Z,42.24
2018-01-05T05:53:43.976Z,42.05
2018-01-05T05:54:43.969Z,41.96
2018-01-05T05:55:43.954Z,41.77
2018-01-05T05:56:43.945Z,41.49
2018-01-05T05:57:43.934Z,41.58
2018-01-05T05:58:43.925Z,41.49
2018-01-05T05:59:43.916Z,41.20
2018-01-05T06:00:43.908Z,41.20
2018-01-05T06:01:43.895Z,41.20
2018-01-05T06:02:43.879Z,41.30
2018-01-05T06:03:43.876Z,40.92
2018-01-05T06:04:43.863Z,40.82
2018-01-05T06:05:43.864Z,40.92
2018-01-05T06:06:43.847Z,40.92
2018-01-05T06:07:43.834Z,40.72
2018-01-05T06:08:43.826Z,40.82
2018-01-05T06:09:43.812Z,40.82
2018-01-05T06:10:43.810Z,40.34
2018-01-05T06:11:43.791Z,40.72
2018-01-05T06:12:43.781Z,40.72
2018-01-05T06:13:43.771Z,40.72
2018-01-05T06:14:43.763Z,40.63
2018-01-05T06:15:43.751Z,40.72
2018-01-05T06:16:43.738Z,40.72
2018-01-05T06:17:43.734Z,39.87
2018-01-05T06:18:43.721Z,40.16
2018-01-05T06:19:43.711Z,40.44
2018-01-05T06:20:43.702Z,40.34
2018-01-05T06:21:43.692Z,40.16
2018-01-05T06:22:43.676Z,40.44
2018-01-05T06:23:43.668Z,40.44
2018-01-05T06:24:43.675Z,40.34
2018-01-05T06:25:43.648Z,40.53
2018-01-05T06:26:43.638Z,40.44
2018-01-05T06:27:43.627Z,40.25
2018-01-05T06:28:43.618Z,40.34
2018-01-05T06:29:43.612Z,40.16
2018-01-05T06:30:43.597Z,39.87
2018-01-05T06:31:43.584Z,39.97
2018-01-05T06:32:43.582Z,39.68
2018-01-05T06:33:43.570Z,39.97
2018-01-05T06:34:43.552Z,39.97
2018-01-05T06:35:43.554Z,39.97
2018-01-05T06:36:43.533Z,40.16
2018-01-05T06:37:43.530Z,40.06
2018-01-05T06:38:43.512Z,40.06
2018-01-05T06:39:43.507Z,40.17
2018-01-05T06:40:43.495Z,40.16
2018-01-05T06:41:43.483Z,40.46
2018-01-05T06:42:43.472Z,40.65
2018-01-05T06:43:43.464Z,40.56
2018-01-05T06:44:43.456Z,40.34
2018-01-05T06:45:43.469Z,40.56
2018-01-05T06:46:43.431Z,40.56
2018-01-05T06:47:43.424Z,39.98
2018-01-05T06:48:43.408Z,40.94
2018-01-05T06:49:43.398Z,40.84
2018-01-05T06:50:43.402Z,40.56
2018-01-05T06:51:43.375Z,40.84
2018-01-05T06:52:43.366Z,41.31
2018-01-05T06:53:43.361Z,41.03
2018-01-05T06:54:43.350Z,42.08
2018-01-05T06:55:43.347Z,42.08
2018-01-05T06:56:43.329Z,42.93
2018-01-05T06:57:43.320Z,42.36
2018-01-05T06:58:43.306Z,42.27
2018-01-05T06:59:43.300Z,42.17
2018-01-05T07:00:43.292Z,42.27
2018-01-05T07:01:43.278Z,43.12
2018-01-05T07:02:43.263Z,42.83
2018-01-05T07:03:43.257Z,41.89
2018-01-05T07:04:43.248Z,42.17
2018-01-05T07:05:43.236Z,42.93
2018-01-05T07:06:43.228Z,42.27
2018-01-05T07:07:43.216Z,42.27
2018-01-05T07:08:43.205Z,42.27
2018-01-05T07:09:43.256Z,41.79
2018-01-05T07:10:43.185Z,41.22
2018-01-05T07:11:43.174Z,41.13
2018-01-05T07:12:43.181Z,41.22
2018-01-05T07:13:43.154Z,40.84
2018-01-05T07:14:43.149Z,40.94
2018-01-05T07:15:43.132Z,40.84
2018-01-05T07:16:43.126Z,41.31
2018-01-05T07:17:43.113Z,41.60
2018-01-05T07:18:43.109Z,40.94
2018-01-05T07:19:43.106Z,41.03
2018-01-05T07:20:43.087Z,41.79
2018-01-05T07:21:43.070Z,41.22
2018-01-05T07:22:43.091Z,41.22
2018-01-05T07:23:43.061Z,41.41
2018-01-05T07:24:43.092Z,41.31
2018-01-05T07:25:43.041Z,41.41
2018-01-05T07:26:43.029Z,41.98
2018-01-05T07:27:43.012Z,41.13
2018-01-05T07:28:43.011Z,40.94
2018-01-05T07:29:43.008Z,41.31
2018-01-05T07:30:42.989Z,41.22
2018-01-05T07:31:42.974Z,40.94
2018-01-05T07:32:42.966Z,40.75
2018-01-05T07:33:42.956Z,40.75
2018-01-05T07:34:42.945Z,40.08
2018-01-05T07:35:42.932Z,40.17
2018-01-05T07:36:42.934Z,39.98
2018-01-05T07:37:42.914Z,40.27
2018-01-05T07:38:42.929Z,40.34
2018-01-05T07:39:42.902Z,40.34
2018-01-05T07:40:42.881Z,40.34
2018-01-05T07:41:42.867Z,40.53
2018-01-05T07:42:42.900Z,40.53
2018-01-05T07:43:42.861Z,40.53
2018-01-05T07:44:42.849Z,40.92
2018-01-05T07:45:42.831Z,40.82
2018-01-05T07:46:42.821Z,40.63
2018-01-05T07:47:42.811Z,41.20
2018-01-05T07:48:42.803Z,40.82
2018-01-05T07:49:42.806Z,41.20
2018-01-05T07:50:42.793Z,41.67
2018-01-05T07:51:42.771Z,40.92
2018-01-05T07:52:42.758Z,40.72
2018-01-05T07:53:42.743Z,42.24
2018-01-05T07:54:42.741Z,42.43
2018-01-05T07:55:42.727Z,42.63
2018-01-05T07:56:42.721Z,42.53
2018-01-05T07:57:42.708Z,42.05
2018-01-05T07:58:42.709Z,41.67
2018-01-05T07:59:42.704Z,41.96
2018-01-05T08:00:42.677Z,42.91
2018-01-05T08:01:42.684Z,42.05
2018-01-05T08:02:42.658Z,44.14
2018-01-05T08:03:42.648Z,43.19
2018-01-05T08:04:42.635Z,42.15
2018-01-05T08:05:42.626Z,42.72
2018-01-05T08:06:42.616Z,42.72
2018-01-05T08:07:42.607Z,42.63
2018-01-05T08:08:42.594Z,42.05
2018-01-05T08:09:42.613Z,42.91
2018-01-05T08:10:42.576Z,43.19
2018-01-05T08:11:42.566Z,43.01
2018-01-05T08:12:42.557Z,42.43
2018-01-05T08:13:42.550Z,42.15
2018-01-05T08:14:42.541Z,42.34
2018-01-05T08:15:42.524Z,43.19
2018-01-05T08:16:42.544Z,43.38
2018-01-05T08:17:42.511Z,46.14
2018-01-05T08:18:42.492Z,44.43
2018-01-05T08:19:42.488Z,45.19
2018-01-05T08:20:42.473Z,44.34
2018-01-05T08:21:42.463Z,43.01
2018-01-05T08:22:42.516Z,42.43
2018-01-05T08:23:42.440Z,42.53
2018-01-05T08:24:42.434Z,42.43
2018-01-05T08:25:42.436Z,43.19
2018-01-05T08:26:42.415Z,42.91
2018-01-05T08:27:42.399Z,42.63
2018-01-05T08:28:42.412Z,41.96
2018-01-05T08:29:42.380Z,42.15
2018-01-05T08:30:42.367Z,42.43
2018-01-05T08:31:42.360Z,41.96
2018-01-05T08:32:42.362Z,42.43
2018-01-05T08:33:42.343Z,42.05
2018-01-05T08:34:42.339Z,44.53
2018-01-05T08:35:42.320Z,43.86
2018-01-05T08:36:42.360Z,43.01
2018-01-05T08:37:42.310Z,42.82
2018-01-05T08:38:42.288Z,42.72
2018-01-05T08:39:42.284Z,43.10
2018-01-05T08:40:42.265Z,42.82
2018-01-05T08:41:42.260Z,42.91
2018-01-05T08:42:42.258Z,43.10
2018-01-05T08:43:42.235Z,43.76
2018-01-05T08:44:42.222Z,43.57
2018-01-05T08:45:42.218Z,44.34
2018-01-05T08:46:42.204Z,43.01
2018-01-05T08:47:42.195Z,42.72
2018-01-05T08:48:42.190Z,42.72
2018-01-05T08:49:42.177Z,43.95
2018-01-05T08:50:42.165Z,42.53
2018-01-05T08:51:42.154Z,42.91
2018-01-05T08:52:42.149Z,42.91
2018-01-05T08:53:42.139Z,44.05
2018-01-05T08:54:42.122Z,43.01
2018-01-05T08:55:42.113Z,42.53
2018-01-05T08:56:42.106Z,43.01
2018-01-05T08:57:42.096Z,43.01
2018-01-05T08:58:42.085Z,44.24
2018-01-05T08:59:42.072Z,45.38
2018-01-05T09:00:42.065Z,45.00
2018-01-05T09:01:42.055Z,44.62
2018-01-05T09:02:42.044Z,45.19
2018-01-05T09:03:42.034Z,45.95
2018-01-05T09:04:42.027Z,45.09
2018-01-05T09:05:42.017Z,43.57
2018-01-05T09:06:42.001Z,45.28
2018-01-05T09:07:41.995Z,43.95
2018-01-05T09:08:41.984Z,47.28
2018-01-05T09:09:41.972Z,45.19
2018-01-05T09:10:41.963Z,43.86
2018-01-05T09:11:41.955Z,43.95
2018-01-05T09:12:41.942Z,46.51
2018-01-05T09:13:41.934Z,47.18
2018-01-05T09:14:41.922Z,48.03
2018-01-05T09:15:41.913Z,47.85
2018-01-05T09:16:41.903Z,46.42
2018-01-05T09:17:41.895Z,46.61
2018-01-05T09:18:41.880Z,46.80
2018-01-05T09:19:41.868Z,45.57
2018-01-05T09:20:41.873Z,45.85
2018-01-05T09:21:41.856Z,49.55
2018-01-05T09:22:41.856Z,46.14
2018-01-05T09:23:41.834Z,46.99
2018-01-05T09:24:41.822Z,46.14
2018-01-05T09:25:41.812Z,45.19
2018-01-05T09:26:41.800Z,44.53
2018-01-05T09:27:41.794Z,45.57
2018-01-05T09:28:41.782Z,47.09
2018-01-05T09:29:41.775Z,46.80
2018-01-05T09:30:41.762Z,45.00
2018-01-05T09:31:41.755Z,44.71
2018-01-05T09:32:41.744Z,47.09
2018-01-05T09:33:41.739Z,45.19
2018-01-05T09:34:41.728Z,46.99
2018-01-05T09:35:41.716Z,45.47
2018-01-05T09:36:41.711Z,44.34
2018-01-05T09:37:41.693Z,46.16
2018-01-05T09:38:41.687Z,44.35
2018-01-05T09:39:41.677Z,44.07
2018-01-05T09:40:41.669Z,45.00
2018-01-05T09:41:41.656Z,46.04
2018-01-05T09:42:41.648Z,45.09
2018-01-05T09:43:41.637Z,45.76
2018-01-05T09:44:41.630Z,48.61
2018-01-05T09:45:41.618Z,46.61
2018-01-05T09:46:41.607Z,45.02
2018-01-05T09:47:41.603Z,45.31
2018-01-05T09:48:41.588Z,45.59
2018-01-05T09:49:41.572Z,45.28
2018-01-05T09:50:41.565Z,47.49
2018-01-05T09:51:41.561Z,46.61
2018-01-05T09:52:41.550Z,48.35
2018-01-05T09:53:41.540Z,46.14
2018-01-05T09:54:41.529Z,45.59
2018-01-05T09:55:41.531Z,45.57
2018-01-05T09:56:41.509Z,47.02
2018-01-05T09:57:41.511Z,47.11
2018-01-05T09:58:41.489Z,46.64
2018-01-05T09:59:41.479Z,49.87
2018-01-05T10:00:41.470Z,46.73
2018-01-05T10:01:41.472Z,44.93
2018-01-05T10:02:41.456Z,45.31
2018-01-05T10:03:41.438Z,46.83
2018-01-05T10:04:41.434Z,47.20
2018-01-05T10:05:41.440Z,44.07
2018-01-05T10:06:41.412Z,45.31
2018-01-05T10:07:41.405Z,50.43
2018-01-05T10:08:41.392Z,46.73
2018-01-05T10:09:41.382Z,48.16
2018-01-05T10:10:41.391Z,47.11
2018-01-05T10:11:41.367Z,45.87
2018-01-05T10:12:41.353Z,46.35
2018-01-05T10:13:41.343Z,45.87
2018-01-05T10:14:41.329Z,48.25
2018-01-05T10:15:41.320Z,46.25
2018-01-05T10:16:41.339Z,44.93
2018-01-05T10:17:41.311Z,45.40
2018-01-05T10:18:41.296Z,45.78
2018-01-05T10:19:41.284Z,44.54
2018-01-05T10:20:41.277Z,43.79
2018-01-05T10:21:41.329Z,43.12
2018-01-05T10:22:41.260Z,43.88
2018-01-05T10:23:41.249Z,43.41
2018-01-05T10:24:41.236Z,44.45
2018-01-05T10:25:41.223Z,44.07
2018-01-05T10:26:41.238Z,45.50
2018-01-05T10:27:41.209Z,45.68
2018-01-05T10:28:41.207Z,44.35
2018-01-05T10:29:41.191Z,47.49
2018-01-05T10:30:41.183Z,47.68
2018-01-05T10:31:41.176Z,46.45
2018-01-05T10:32:41.160Z,46.45
2018-01-05T10:33:41.156Z,46.64
2018-01-05T10:34:41.145Z,46.35
2018-01-05T10:35:41.130Z,44.64
2018-01-05T10:36:41.121Z,44.54
2018-01-05T10:37:41.113Z,46.64
2018-01-05T10:38:41.104Z,45.21
2018-01-05T10:39:41.093Z,47.58
2018-01-05T10:40:41.083Z,49.29
2018-01-05T10:41:41.071Z,50.72
2018-01-05T10:42:41.065Z,47.80
2018-01-05T10:43:41.055Z,47.80
2018-01-05T10:44:41.044Z,47.04
2018-01-05T10:45:41.037Z,47.33
2018-01-05T10:46:41.032Z,46.56
2018-01-05T10:47:41.018Z,47.04
2018-01-05T10:48:41.014Z,45.90
2018-01-05T10:49:41.003Z,46.19
2018-01-05T10:50:40.988Z,45.71
2018-01-05T10:51:40.979Z,45.42
2018-01-05T10:52:40.973Z,46.85
2018-01-05T10:53:40.961Z,45.42
2018-01-05T10:54:40.954Z,46.19
2018-01-05T10:55:40.946Z,46.75
2018-01-05T10:56:40.931Z,46.66
2018-01-05T10:57:40.923Z,45.80
2018-01-05T10:58:40.916Z,46.28
2018-01-05T10:59:40.906Z,45.23
2018-01-05T11:00:40.964Z,45.61
2018-01-05T11:01:40.888Z,48.37
2018-01-05T11:02:40.884Z,47.61
2018-01-05T11:03:40.876Z,48.27
2018-01-05T11:04:40.862Z,48.94
2018-01-05T11:05:40.860Z,48.56
2018-01-05T11:06:40.853Z,52.36
2018-01-05T11:07:40.835Z,53.22
2018-01-05T11:08:40.825Z,52.48
2018-01-05T11:09:40.829Z,52.39
2018-01-05T11:10:40.814Z,53.15
2018-01-05T11:11:40.804Z,53.03
2018-01-05T11:12:40.792Z,53.03
2018-01-05T11:13:40.784Z,56.45
2018-01-05T11:14:40.776Z,50.20
2018-01-05T11:15:40.762Z,50.39
2018-01-05T11:16:40.757Z,51.51
2018-01-05T11:17:40.753Z,55.11
2018-01-05T11:18:40.739Z,56.92
2018-01-05T11:19:40.730Z,56.54
2018-01-05T11:20:40.716Z,54.93
2018-01-05T11:21:40.715Z,59.49
2018-01-05T11:22:40.705Z,52.26
2018-01-05T11:23:40.693Z,53.59
2018-01-05T11:24:40.685Z,55.50
2018-01-05T11:25:40.674Z,56.54
2018-01-05T11:26:40.673Z,56.63
2018-01-05T11:27:40.663Z,51.72
2018-01-05T11:28:40.690Z,54.26
2018-01-05T11:29:40.639Z,53.88
2018-01-05T11:30:40.632Z,55.40
2018-01-05T11:31:40.628Z,52.26
2018-01-05T11:32:40.615Z,49.51
2018-01-05T11:33:40.606Z,50.08
2018-01-05T11:34:40.600Z,51.89
2018-01-05T11:35:40.591Z,57.68
2018-01-05T11:36:40.595Z,55.50
2018-01-05T11:37:40.572Z,54.74
2018-01-05T11:38:40.562Z,53.91
2018-01-05T11:39:40.553Z,52.58
2018-01-05T11:40:40.542Z,53.41
2018-01-05T11:41:40.540Z,57.52
2018-01-05T11:42:40.532Z,54.96
2018-01-05T11:43:40.517Z,56.83
2018-01-05T11:44:40.502Z,55.43
2018-01-05T11:45:40.501Z,70.64
2018-01-05T11:46:40.489Z,60.94
2018-01-05T11:47:40.483Z,56.76
2018-01-05T11:48:40.469Z,61.90
2018-01-05T11:49:40.462Z,60.09
2018-01-05T11:50:40.454Z,61.71
2018-01-05T11:51:40.445Z,65.99
2018-01-05T11:52:40.436Z,54.29
2018-01-05T11:53:40.426Z,61.71
2018-01-05T11:54:40.416Z,60.47
2018-01-05T11:55:40.406Z,64.18
2018-01-05T11:56:40.404Z,57.52
2018-01-05T11:57:40.392Z,60.66
2018-01-05T11:58:40.383Z,59.23
2018-01-05T11:59:40.377Z,58.57
2018-01-05T12:00:40.370Z,54.77
2018-01-05T12:01:40.357Z,54.86
2018-01-05T12:02:40.345Z,56.48
2018-01-05T12:03:40.340Z,51.53
2018-01-05T12:04:40.329Z,53.63
2018-01-05T12:05:40.315Z,55.52
2018-01-05T12:06:40.314Z,54.77
2018-01-05T12:07:40.298Z,56.76
2018-01-05T12:08:40.291Z,55.24
2018-01-05T12:09:40.285Z,51.34
2018-01-05T12:10:40.299Z,53.05
2018-01-05T12:11:40.283Z,57.04
2018-01-05T12:12:40.293Z,49.44
2018-01-05T12:13:40.285Z,50.87
2018-01-05T12:14:40.241Z,53.15
2018-01-05T12:15:40.232Z,52.10
2018-01-05T12:16:40.226Z,50.58
2018-01-05T12:17:40.216Z,47.73
2018-01-05T12:18:40.203Z,53.53
2018-01-05T12:19:40.193Z,57.71
2018-01-05T12:20:40.188Z,65.03
2018-01-05T12:21:40.181Z,55.05
2018-01-05T12:22:40.170Z,52.76
2018-01-05T12:23:40.165Z,51.72
2018-01-05T12:24:40.161Z,58.76
2018-01-05T12:25:40.142Z,59.90
2018-01-05T12:26:40.135Z,62.43
2018-01-05T12:27:40.122Z,60.75
2018-01-05T12:28:40.117Z,57.81
2018-01-05T12:29:40.106Z,62.08
2018-01-05T12:30:40.099Z,54.57
2018-01-05T12:31:40.087Z,65.60
2018-01-05T12:32:40.074Z,60.57
2018-01-05T12:33:40.072Z,58.85
2018-01-05T12:34:40.061Z,57.62
2018-01-05T12:35:40.053Z,56.19
2018-01-05T12:36:40.047Z,52.48
2018-01-05T12:37:40.035Z,52.20
2018-01-05T12:38:40.023Z,63.42
2018-01-05T12:39:40.015Z,62.18
2018-01-05T12:40:40.005Z,60.28
2018-01-05T12:41:39.999Z,65.13
2018-01-05T12:42:39.988Z,58.09
2018-01-05T12:43:39.977Z,58.76
2018-01-05T12:44:39.975Z,64.56
2018-01-05T12:45:39.965Z,58.47
2018-01-05T12:46:39.957Z,63.79
2018-01-05T12:47:39.945Z,58.00
2018-01-05T12:48:39.937Z,60.75
2018-01-05T12:49:39.929Z,66.46
2018-01-05T12:50:39.917Z,63.70
2018-01-05T12:51:39.912Z,56.38
2018-01-05T12:52:39.920Z,54.67